createdAt,value
2018-07-11T00:01:55.378Z,8.18
2018-07-11T00:04:23.703Z,7.70
2018-07-11T00:06:51.946Z,7.07
2018-07-11T00:09:20.215Z,7.97
2018-07-11T00:11:48.807Z,8.17
2018-07-11T00:14:21.284Z,7.30
2018-07-11T00:16:54.943Z,7.80
2018-07-11T00:19:23.043Z,7.13
2018-07-11T00:21:51.162Z,7.70
2018-07-11T00:24:20.656Z,7.65
2018-07-11T00:26:48.735Z,7.70
2018-07-11T00:29:17.404Z,6.90
2018-07-11T00:31:45.554Z,8.03
2018-07-11T00:34:13.768Z,6.90
2018-07-11T00:36:42.468Z,7.33
2018-07-11T00:39:10.629Z,6.40
2018-07-11T00:41:39.247Z,6.87
2018-07-11T00:44:07.471Z,6.40
2018-07-11T00:46:35.953Z,7.27
2018-07-11T00:49:04.043Z,6.58
2018-07-11T00:51:32.444Z,8.07
2018-07-11T00:54:00.755Z,7.00
2018-07-11T00:56:28.914Z,7.03
2018-07-11T00:59:06.210Z,7.70
2018-07-11T01:01:35.862Z,8.25
2018-07-11T01:04:04.411Z,7.72
2018-07-11T01:06:32.979Z,8.90
2018-07-11T01:09:01.107Z,7.83
2018-07-11T01:11:34.431Z,8.63
2018-07-11T01:14:02.550Z,7.80
2018-07-11T01:16:30.753Z,7.13
2018-07-11T01:19:00.870Z,7.40
2018-07-11T01:21:29.420Z,7.90
2018-07-11T01:23:57.754Z,7.92
2018-07-11T01:26:29.559Z,7.30
2018-07-11T01:28:57.862Z,7.45
2018-07-11T01:31:26.339Z,8.13
2018-07-11T01:33:55.306Z,8.37
2018-07-11T01:36:23.589Z,8.27
2018-07-11T01:38:51.663Z,8.20
2018-07-11T01:41:19.730Z,8.48
2018-07-11T01:43:47.777Z,8.07
2018-07-11T01:46:16.096Z,7.93
2018-07-11T01:48:44.933Z,8.07
2018-07-11T01:51:12.999Z,8.33
2018-07-11T01:53:41.204Z,8.30
2018-07-11T01:56:09.435Z,9.17
2018-07-11T01:58:38.976Z,8.30
2018-07-11T02:01:07.324Z,8.57
2018-07-11T02:03:35.428Z,9.13
2018-07-11T02:06:03.811Z,8.87
2018-07-11T02:08:31.891Z,8.73
2018-07-11T02:11:00.343Z,8.97
2018-07-11T02:13:28.753Z,8.30
2018-07-11T02:15:57.216Z,9.00
2018-07-11T02:18:26.351Z,10.40
2018-07-11T02:20:55.270Z,10.67
2018-07-11T02:23:23.839Z,9.20
2018-07-11T02:25:51.958Z,10.30
2018-07-11T02:28:20.454Z,10.10
2018-07-11T02:30:48.591Z,10.37
2018-07-11T02:33:16.802Z,10.90
2018-07-11T02:35:44.892Z,11.05
2018-07-11T02:38:12.991Z,11.17
2018-07-11T02:40:41.097Z,12.77
2018-07-11T02:43:09.180Z,11.73
2018-07-11T02:45:37.354Z,12.13
2018-07-11T02:48:05.643Z,12.57
2018-07-11T02:50:35.841Z,12.37
2018-07-11T02:53:03.948Z,11.67
2018-07-11T02:55:32.101Z,12.27
2018-07-11T02:58:00.178Z,12.13
2018-07-11T03:00:29.444Z,11.67
2018-07-11T03:02:57.507Z,11.43
2018-07-11T03:05:25.673Z,11.30
2018-07-11T03:07:53.744Z,12.40
2018-07-11T03:10:21.849Z,12.13
2018-07-11T03:12:50.167Z,13.00
2018-07-11T03:15:18.300Z,13.40
2018-07-11T03:17:46.740Z,13.60
2018-07-11T03:20:14.859Z,14.30
2018-07-11T03:22:42.957Z,12.70
2018-07-11T03:25:11.115Z,12.67
2018-07-11T03:27:39.372Z,13.77
2018-07-11T03:30:07.475Z,13.40
2018-07-11T03:32:36.786Z,12.23
2018-07-11T03:35:05.027Z,14.50
2018-07-11T03:37:33.205Z,14.80
2018-07-11T03:40:01.316Z,14.38
2018-07-11T03:42:29.377Z,15.20
2018-07-11T03:44:57.439Z,13.93
2018-07-11T03:47:25.559Z,14.20
2018-07-11T03:49:53.647Z,15.13
2018-07-11T03:52:21.776Z,15.50
2018-07-11T03:54:49.926Z,14.10
2018-07-11T03:57:18.507Z,14.63
2018-07-11T03:59:46.694Z,14.90
2018-07-11T04:02:14.780Z,14.63
2018-07-11T04:04:42.864Z,16.10
2018-07-11T04:07:11.054Z,14.70
2018-07-11T04:09:39.171Z,14.80
2018-07-11T04:12:07.271Z,14.57
2018-07-11T04:14:35.446Z,14.20
2018-07-11T04:17:03.684Z,15.13
2018-07-11T04:19:31.802Z,13.93
2018-07-11T04:21:59.885Z,15.05
2018-07-11T04:24:27.990Z,14.03
2018-07-11T04:26:56.065Z,14.83
2018-07-11T04:29:24.139Z,15.00
2018-07-11T04:31:52.277Z,13.77
2018-07-11T04:34:20.908Z,14.07
2018-07-11T04:36:49.036Z,14.67
2018-07-11T04:39:17.565Z,15.90
2018-07-11T04:41:45.775Z,13.00
2018-07-11T04:44:13.999Z,13.30
2018-07-11T04:46:42.199Z,13.13
2018-07-11T04:49:10.319Z,13.73
2018-07-11T04:51:38.453Z,13.87
2018-07-11T04:54:06.528Z,14.60
2018-07-11T04:56:34.629Z,13.63
2018-07-11T04:59:02.732Z,14.30
2018-07-11T05:01:31.105Z,13.70
2018-07-11T05:03:59.317Z,13.07
2018-07-11T05:06:27.400Z,13.43
2018-07-11T05:08:56.161Z,14.10
2018-07-11T05:11:24.436Z,13.43
2018-07-11T05:13:52.737Z,13.80
2018-07-11T05:16:21.087Z,13.77
2018-07-11T05:18:49.188Z,12.93
2018-07-11T05:21:17.323Z,13.03
2018-07-11T05:23:45.419Z,12.00
2018-07-11T05:26:13.581Z,13.47
2018-07-11T05:28:41.703Z,14.37
2018-07-11T05:31:10.238Z,12.90
2018-07-11T05:33:38.388Z,13.77
2018-07-11T05:36:06.479Z,14.00
2018-07-11T05:38:34.654Z,13.50
2018-07-11T05:41:03.334Z,14.20
2018-07-11T05:43:31.491Z,13.40
2018-07-11T05:45:59.603Z,12.88
2018-07-11T05:48:27.766Z,13.90
2018-07-11T05:50:55.871Z,13.20
2018-07-11T05:53:24.014Z,13.43
2018-07-11T05:55:52.171Z,12.15
2018-07-11T05:58:20.271Z,12.77
2018-07-11T06:00:49.345Z,13.93
2018-07-11T06:03:17.475Z,13.37
2018-07-11T06:05:46.600Z,12.60
2018-07-11T06:08:14.710Z,14.10
2018-07-11T06:10:43.883Z,12.80
2018-07-11T06:13:12.071Z,11.57
2018-07-11T06:15:40.192Z,12.33
2018-07-11T06:18:08.451Z,12.30
2018-07-11T06:20:36.572Z,13.27
2018-07-11T06:23:05.719Z,11.88
2018-07-11T06:25:34.025Z,11.60
2018-07-11T06:28:03.482Z,12.07
2018-07-11T06:30:31.887Z,11.37
2018-07-11T06:32:59.988Z,10.90
2018-07-11T06:35:28.122Z,11.30
2018-07-11T06:37:56.248Z,11.83
2018-07-11T06:40:24.441Z,11.50
2018-07-11T06:42:52.739Z,11.17
2018-07-11T06:45:20.975Z,10.57
2018-07-11T06:47:49.671Z,12.07
2018-07-11T06:50:17.815Z,10.90
2018-07-11T06:52:45.979Z,11.60
2018-07-11T06:55:14.127Z,11.33
2018-07-11T06:57:42.329Z,11.67
2018-07-11T07:00:10.602Z,11.10
2018-07-11T07:02:38.712Z,10.90
2018-07-11T07:05:08.067Z,10.40
2018-07-11T07:07:36.194Z,9.60
2018-07-11T07:10:04.368Z,9.83
2018-07-11T07:12:32.517Z,10.20
2018-07-11T07:15:00.639Z,9.60
2018-07-11T07:17:28.746Z,9.70
2018-07-11T07:19:56.917Z,7.93
2018-07-11T07:22:25.037Z,8.47
2018-07-11T07:24:53.095Z,9.50
2018-07-11T07:27:21.180Z,8.70
2018-07-11T07:29:49.824Z,8.25
2018-07-11T07:32:17.975Z,8.77
2018-07-11T07:34:46.180Z,8.30
2018-07-11T07:37:14.219Z,7.00
2018-07-11T07:39:42.276Z,8.00
2018-07-11T07:42:10.423Z,7.80
2018-07-11T07:44:38.550Z,7.50
2018-07-11T07:47:10.906Z,7.33
2018-07-11T07:49:39.025Z,7.20
2018-07-11T07:52:07.193Z,6.83
2018-07-11T07:54:35.329Z,7.33
2018-07-11T07:57:03.433Z,6.77
2018-07-11T07:59:31.616Z,7.00
2018-07-11T08:01:59.739Z,6.60
2018-07-11T08:04:28.087Z,6.60
2018-07-11T08:06:56.238Z,5.57
2018-07-11T08:09:24.406Z,6.22
2018-07-11T08:11:52.631Z,6.80
2018-07-11T08:14:20.759Z,6.80
2018-07-11T08:16:49.526Z,5.30
2018-07-11T08:19:18.692Z,5.00
2018-07-11T08:21:46.813Z,5.53
2018-07-11T08:24:26.139Z,5.57
2018-07-11T08:27:24.481Z,5.57
2018-07-11T08:30:05.971Z,5.60
2018-07-11T08:32:41.961Z,5.55
2018-07-11T08:35:21.025Z,6.20
2018-07-11T08:40:06.225Z,5.33
2018-07-11T08:42:47.250Z,5.53
2018-07-11T08:45:27.664Z,6.20
2018-07-11T08:48:07.169Z,6.93
2018-07-11T08:51:09.544Z,5.65
2018-07-11T08:53:49.288Z,5.77
2018-07-11T08:56:30.703Z,5.30
2018-07-11T08:59:16.139Z,4.53
2018-07-11T09:02:13.319Z,5.23
2018-07-11T09:06:56.426Z,4.43
2018-07-11T09:10:39.856Z,4.60
2018-07-11T09:13:19.139Z,4.57
2018-07-11T09:16:00.984Z,4.37
2018-07-11T09:18:38.784Z,4.30
2018-07-11T09:23:24.108Z,3.70
2018-07-11T09:25:52.220Z,3.97
2018-07-11T09:28:20.601Z,3.85
2018-07-11T09:30:48.695Z,3.97
2018-07-11T09:33:16.784Z,4.23
2018-07-11T09:35:45.041Z,4.03
2018-07-11T09:38:13.123Z,4.57
2018-07-11T09:40:41.180Z,3.97
2018-07-11T09:43:09.396Z,3.97
2018-07-11T09:45:37.610Z,4.58
2018-07-11T09:48:05.896Z,4.33
2018-07-11T09:50:34.009Z,4.20
2018-07-11T09:53:02.107Z,4.05
2018-07-11T09:57:58.403Z,4.30
2018-07-11T10:00:31.784Z,3.92
2018-07-11T10:02:59.973Z,4.63
2018-07-11T10:05:28.045Z,3.90
2018-07-11T10:07:56.301Z,3.80
2018-07-11T10:10:24.485Z,3.97
2018-07-11T10:12:52.669Z,3.90
2018-07-11T10:15:21.116Z,3.67
2018-07-11T10:17:49.191Z,4.43
2018-07-11T10:20:17.323Z,4.20
2018-07-11T10:22:45.443Z,4.60
2018-07-11T10:25:13.533Z,4.43
2018-07-11T10:27:42.628Z,3.73
2018-07-11T10:30:10.787Z,4.57
2018-07-11T10:32:38.882Z,4.05
2018-07-11T10:35:07.442Z,4.10
2018-07-11T10:37:35.776Z,3.67
2018-07-11T10:40:03.884Z,3.93
2018-07-11T10:42:32.028Z,3.77
2018-07-11T10:45:00.175Z,3.70
2018-07-11T10:47:28.275Z,4.10
2018-07-11T10:49:56.470Z,3.98
2018-07-11T10:52:24.574Z,3.10
2018-07-11T10:54:52.694Z,3.60
2018-07-11T10:57:21.023Z,3.35
2018-07-11T10:59:49.194Z,3.80
2018-07-11T11:02:19.286Z,3.60
2018-07-11T11:04:47.465Z,3.40
2018-07-11T11:07:23.978Z,3.40
2018-07-11T11:09:53.157Z,3.33
2018-07-11T11:12:22.157Z,3.90
2018-07-11T11:14:51.414Z,3.75
2018-07-11T11:17:19.507Z,3.90
2018-07-11T11:19:47.659Z,3.77
2018-07-11T11:22:15.838Z,3.20
2018-07-11T11:24:43.984Z,4.50
2018-07-11T11:27:12.051Z,5.17
2018-07-11T11:29:40.339Z,5.47
2018-07-11T11:32:08.457Z,5.40
2018-07-11T11:34:36.808Z,5.27
2018-07-11T11:37:05.060Z,5.03
2018-07-11T11:39:33.211Z,5.77
2018-07-11T11:42:01.406Z,6.07
2018-07-11T11:44:29.427Z,5.90
2018-07-11T11:47:01.392Z,6.93
2018-07-11T11:49:30.099Z,5.40
2018-07-11T11:51:58.315Z,5.30
2018-07-11T11:54:26.396Z,5.30
2018-07-11T11:56:54.616Z,4.10
2018-07-11T11:59:22.735Z,5.23
2018-07-11T12:01:51.502Z,5.08
2018-07-11T12:04:19.592Z,4.30
2018-07-11T12:06:47.687Z,4.53
2018-07-11T12:09:17.126Z,4.73
2018-07-11T12:11:45.260Z,4.40
2018-07-11T12:14:13.363Z,4.30
2018-07-11T12:16:41.453Z,4.30
2018-07-11T12:19:09.960Z,4.57
2018-07-11T12:21:38.187Z,3.63
2018-07-11T12:24:06.471Z,3.25
2018-07-11T12:26:34.567Z,3.50
2018-07-11T12:29:02.653Z,3.20
2018-07-11T12:31:30.831Z,4.43
2018-07-11T12:33:59.875Z,4.00
2018-07-11T12:36:28.024Z,4.57
2018-07-11T12:38:56.182Z,3.67
2018-07-11T12:41:24.580Z,3.80
2018-07-11T12:43:52.662Z,2.97
2018-07-11T12:46:21.741Z,3.30
2018-07-11T12:48:55.247Z,3.20
2018-07-11T12:51:23.387Z,3.43
2018-07-11T12:53:51.790Z,3.90
2018-07-11T12:56:20.012Z,3.50
2018-07-11T12:58:48.244Z,3.77
2018-07-11T13:01:16.373Z,3.97
2018-07-11T13:03:44.636Z,3.03
2018-07-11T13:06:12.958Z,3.10
2018-07-11T13:08:41.041Z,2.80
2018-07-11T13:11:09.262Z,2.67
2018-07-11T13:13:37.420Z,3.52
2018-07-11T13:16:06.673Z,3.30
2018-07-11T13:18:34.863Z,3.50
2018-07-11T13:21:03.043Z,4.78
2018-07-11T13:23:31.220Z,3.53
2018-07-11T13:25:59.443Z,3.20
2018-07-11T13:28:27.737Z,2.90
2018-07-11T13:30:57.142Z,3.20
2018-07-11T13:33:25.546Z,3.37
2018-07-11T13:35:53.695Z,3.63
2018-07-11T13:38:22.202Z,3.10
2018-07-11T13:40:51.039Z,3.40
2018-07-11T13:43:19.157Z,3.73
2018-07-11T13:45:47.259Z,3.27
2018-07-11T13:48:15.381Z,3.53
2018-07-11T13:50:44.043Z,3.13
2018-07-11T13:53:12.643Z,2.90
2018-07-11T13:55:40.740Z,2.90
2018-07-11T13:58:09.011Z,3.00
2018-07-11T14:00:37.118Z,2.90
2018-07-11T14:03:05.785Z,3.00
2018-07-11T14:05:34.210Z,2.80
2018-07-11T14:08:02.337Z,2.45
2018-07-11T14:10:31.407Z,2.83
2018-07-11T14:13:01.019Z,2.70
2018-07-11T14:15:29.135Z,2.72
2018-07-11T14:17:57.439Z,2.97
2018-07-11T14:20:25.608Z,3.30
2018-07-11T14:22:53.812Z,2.67
2018-07-11T14:25:22.170Z,3.03
2018-07-11T14:28:00.059Z,3.30
2018-07-11T14:30:28.198Z,2.92
2018-07-11T14:32:58.519Z,3.37
2018-07-11T14:35:26.694Z,3.05
2018-07-11T14:37:54.858Z,2.80
2018-07-11T14:40:23.043Z,3.27
2018-07-11T14:42:52.163Z,3.47
2018-07-11T14:45:20.262Z,2.90
2018-07-11T14:47:53.623Z,3.13
2018-07-11T14:50:22.183Z,3.50
2018-07-11T14:52:50.304Z,3.70
2018-07-11T14:55:18.372Z,2.90
2018-07-11T14:57:46.893Z,3.63
2018-07-11T15:00:15.189Z,4.47
2018-07-11T15:02:43.318Z,3.30
2018-07-11T15:05:11.475Z,4.10
2018-07-11T15:07:39.576Z,4.30
2018-07-11T15:10:07.966Z,4.05
2018-07-11T15:12:36.132Z,3.72
2018-07-11T15:15:04.339Z,4.57
2018-07-11T15:17:32.934Z,5.00
2018-07-11T15:20:01.427Z,4.65
2018-07-11T15:22:29.552Z,4.80
2018-07-11T15:24:58.043Z,5.00
2018-07-11T15:27:26.402Z,5.60
2018-07-11T15:29:55.781Z,4.80
2018-07-11T15:32:23.960Z,4.60
2018-07-11T15:34:53.059Z,4.85
2018-07-11T15:37:21.417Z,4.83
2018-07-11T15:39:49.650Z,4.40
2018-07-11T15:42:17.809Z,4.67
2018-07-11T15:44:45.980Z,4.27
2018-07-11T15:47:14.628Z,4.50
2018-07-11T15:49:42.780Z,4.50
2018-07-11T15:52:11.148Z,4.63
2018-07-11T15:54:39.737Z,4.87
2018-07-11T15:57:14.285Z,4.10
2018-07-11T16:00:01.814Z,4.40
2018-07-11T16:02:31.063Z,4.67
2018-07-11T16:04:59.193Z,5.63
2018-07-11T16:07:29.151Z,5.33
2018-07-11T16:09:59.388Z,5.30
2018-07-11T16:12:27.511Z,4.70
2018-07-11T16:14:56.342Z,4.70
2018-07-11T16:17:24.612Z,5.47
2018-07-11T16:19:52.794Z,5.13
2018-07-11T16:22:21.400Z,5.27
2018-07-11T16:24:49.789Z,4.80
2018-07-11T16:27:18.506Z,5.07
2018-07-11T16:29:46.617Z,4.03
2018-07-11T16:32:14.753Z,4.60
2018-07-11T16:34:43.489Z,4.57
2018-07-11T16:37:11.612Z,3.73
2018-07-11T16:39:39.728Z,4.53
2018-07-11T16:42:07.872Z,3.87
2018-07-11T16:44:36.507Z,4.13
2018-07-11T16:47:06.246Z,3.87
2018-07-11T16:49:37.885Z,3.43
2018-07-11T16:52:06.093Z,3.90
2018-07-11T16:54:34.279Z,3.47
2018-07-11T16:57:03.484Z,3.83
2018-07-11T16:59:40.709Z,3.60
2018-07-11T17:02:09.728Z,3.83
2018-07-11T17:04:40.104Z,3.95
2018-07-11T17:07:10.561Z,4.50
2018-07-11T17:09:39.519Z,4.28
2018-07-11T17:12:10.143Z,4.30
2018-07-11T17:14:38.371Z,3.72
2018-07-11T17:17:06.611Z,3.98
2018-07-11T17:19:47.418Z,3.50
2018-07-11T17:22:16.974Z,3.90
2018-07-11T17:24:47.557Z,3.60
2018-07-11T17:27:19.131Z,3.50
2018-07-11T17:29:47.698Z,3.80
2018-07-11T17:32:15.943Z,3.33
2018-07-11T17:34:44.060Z,4.00
2018-07-11T17:37:19.809Z,2.93
2018-07-11T17:39:53.069Z,3.93
2018-07-11T17:42:30.121Z,3.73
2018-07-11T17:45:09.491Z,4.60
2018-07-11T17:47:49.404Z,5.60
2018-07-11T17:50:17.546Z,4.27
2018-07-11T17:53:06.214Z,4.43
2018-07-11T17:55:35.578Z,4.22
2018-07-11T17:58:06.707Z,3.95
2018-07-11T18:00:52.606Z,4.67
2018-07-11T18:04:42.889Z,4.37
2018-07-11T18:07:12.927Z,4.53
2018-07-11T18:10:01.277Z,5.53
2018-07-11T18:12:37.030Z,4.87
2018-07-11T18:15:19.191Z,4.70
2018-07-11T18:17:57.452Z,4.60
2018-07-11T18:20:35.088Z,5.20
2018-07-11T18:24:32.199Z,4.27
2018-07-11T18:27:41.752Z,4.47
2018-07-11T18:30:34.575Z,4.17
2018-07-11T18:33:21.759Z,5.50
2018-07-11T18:36:01.299Z,5.03
2018-07-11T18:38:35.479Z,6.47
2018-07-11T18:41:05.548Z,5.73
2018-07-11T18:43:42.850Z,4.50
2018-07-11T18:46:19.787Z,4.70
2018-07-11T18:48:56.864Z,4.00
2018-07-11T18:51:34.188Z,4.00
2018-07-11T18:54:08.927Z,4.40
2018-07-11T18:57:02.580Z,4.20
2018-07-11T18:59:46.955Z,3.60
2018-07-11T19:02:25.021Z,5.80
2018-07-11T19:05:03.133Z,4.70
2018-07-11T19:07:38.941Z,10.93
2018-07-11T19:10:07.223Z,5.75
2018-07-11T19:12:43.232Z,5.40
2018-07-11T19:15:19.563Z,5.97
2018-07-11T19:17:54.017Z,5.97
2018-07-11T19:20:31.091Z,5.50
2018-07-11T19:23:14.117Z,5.72
2018-07-11T19:27:57.391Z,4.70
2018-07-11T19:30:35.619Z,5.87
2018-07-11T19:33:19.863Z,6.10
2018-07-11T19:35:56.812Z,5.43
2018-07-11T19:38:36.188Z,5.40
2018-07-11T19:41:23.898Z,4.97
2018-07-11T19:46:09.671Z,5.47
2018-07-11T19:48:44.472Z,5.03
2018-07-11T19:51:19.196Z,4.60
2018-07-11T19:53:56.144Z,4.87
2018-07-11T19:56:29.569Z,5.00
2018-07-11T19:58:57.627Z,4.70
2018-07-11T20:01:25.997Z,4.67
2018-07-11T20:03:54.292Z,5.13
2018-07-11T20:06:23.723Z,4.87
2018-07-11T20:08:55.489Z,5.03
2018-07-11T20:11:23.618Z,6.53
2018-07-11T20:13:53.011Z,8.30
2018-07-11T20:16:21.811Z,8.43
2018-07-11T20:18:50.043Z,9.33
2018-07-11T20:21:18.227Z,20.40
2018-07-11T20:23:46.427Z,10.27
2018-07-11T20:26:14.749Z,10.07
2018-07-11T20:28:43.061Z,11.80
2018-07-11T20:31:11.204Z,12.37
2018-07-11T20:33:39.475Z,10.93
2018-07-11T20:36:07.888Z,11.40
2018-07-11T20:38:36.303Z,11.90
2018-07-11T20:41:06.868Z,10.93
2018-07-11T20:43:35.187Z,10.98
2018-07-11T20:46:03.674Z,12.57
2018-07-11T20:48:32.033Z,13.17
2018-07-11T20:51:00.225Z,11.90
2018-07-11T20:53:28.571Z,11.88
2018-07-11T20:56:04.846Z,10.83
2018-07-11T20:58:44.474Z,13.22
2018-07-11T21:01:23.812Z,14.07
2018-07-11T21:06:05.063Z,11.07
2018-07-11T21:08:45.935Z,10.60
2018-07-11T21:11:25.515Z,11.07
2018-07-11T21:14:07.206Z,12.13
2018-07-11T21:16:57.999Z,12.93
2018-07-11T21:19:26.087Z,15.83
2018-07-11T21:21:54.197Z,16.33
2018-07-11T21:24:22.390Z,17.20
2018-07-11T21:26:50.734Z,16.90
2018-07-11T21:29:19.295Z,16.70
2018-07-11T21:31:47.505Z,17.37
2018-07-11T21:34:15.703Z,17.10
2018-07-11T21:36:43.899Z,17.97
2018-07-11T21:39:12.302Z,18.33
2018-07-11T21:41:40.484Z,18.40
2018-07-11T21:44:08.688Z,19.15
2018-07-11T21:46:36.970Z,17.75
2018-07-11T21:49:05.062Z,17.20
2018-07-11T21:51:34.304Z,17.17
2018-07-11T21:54:02.427Z,18.05
2018-07-11T21:56:30.787Z,18.60
2018-07-11T21:59:00.135Z,19.42
2018-07-11T22:01:28.254Z,17.67
2018-07-11T22:03:56.650Z,21.60
2018-07-11T22:06:25.505Z,21.73
2018-07-11T22:08:54.217Z,20.40
2018-07-11T22:11:23.051Z,21.97
2018-07-11T22:13:51.307Z,20.80
2018-07-11T22:16:19.399Z,20.53
2018-07-11T22:18:47.700Z,20.83
2018-07-11T22:21:15.495Z,21.27
2018-07-11T22:23:42.628Z,21.03
2018-07-11T22:26:09.930Z,21.27
2018-07-11T22:28:37.104Z,21.67
2018-07-11T22:31:04.371Z,20.37
2018-07-11T22:33:31.565Z,20.60
2018-07-11T22:35:58.823Z,21.70
2018-07-11T22:38:26.755Z,20.50
2018-07-11T22:40:53.916Z,19.80
2018-07-11T22:43:21.326Z,21.03
2018-07-11T22:45:48.536Z,20.10
2018-07-11T22:48:15.654Z,19.87
2018-07-11T22:50:43.079Z,22.57
2018-07-11T22:53:10.172Z,20.80
2018-07-11T22:55:37.274Z,18.85
2018-07-11T22:58:04.493Z,19.10
2018-07-11T23:00:31.615Z,19.35
2018-07-11T23:02:58.794Z,19.63
2018-07-11T23:05:26.254Z,19.77
2018-07-11T23:07:53.455Z,21.27
2018-07-11T23:10:20.556Z,19.83
2018-07-11T23:12:47.679Z,19.93
2018-07-11T23:15:14.812Z,19.23
2018-07-11T23:17:42.329Z,19.10
2018-07-11T23:20:09.662Z,19.50
2018-07-11T23:22:36.773Z,19.85
2018-07-11T23:25:03.872Z,18.97
2018-07-11T23:27:31.268Z,20.70
2018-07-11T23:29:58.370Z,18.80
2018-07-11T23:32:25.481Z,20.03
2018-07-11T23:34:53.539Z,19.80
2018-07-11T23:37:20.667Z,18.67
2018-07-11T23:39:48.193Z,19.80
2018-07-11T23:42:15.319Z,20.30
2018-07-11T23:44:42.812Z,17.77
2018-07-11T23:47:10.232Z,20.40
2018-07-11T23:49:37.649Z,19.07
2018-07-11T23:52:05.735Z,19.27
2018-07-11T23:54:33.869Z,18.00
2018-07-11T23:57:01.778Z,18.33
2018-07-11T23:59:28.939Z,18.50
